Time;durP1;ratioP1;P1;durP2;ratioP2;P2;SDS_P1;SDS_P2;PMS_P1;PMS_P2;Temp;Humidity;BMP_temperature;BMP_pressure;BME280_temperature;BME280_humidity;BME280_pressure;Samples;Min_cycle;Max_cycle;Signal;HPM_P1;HPM_P2
2023/06/19 00:02:18;;;;;;;3.47;3.25;;;;;;;22.02;45.58;100404.22;4922099;29;20475;-77
2023/06/19 00:04:44;;;;;;;4.13;3.63;;;;;;;21.96;45.77;100402.75;4927513;29;20055;-78
2023/06/19 00:07:11;;;;;;;4.10;3.58;;;;;;;21.91;46.28;100399.50;4904753;29;20048;-78
2023/06/19 00:09:38;;;;;;;3.72;3.42;;;;;;;21.85;46.17;100407.00;4915286;29;20040;-78
2023/06/19 00:12:05;;;;;;;4.22;3.85;;;;;;;21.82;46.28;100397.41;4918190;29;20048;-78
2023/06/19 00:14:32;;;;;;;4.40;4.10;;;;;;;21.79;46.47;100397.59;4911074;29;20049;-83
2023/06/19 00:17:00;;;;;;;4.10;3.70;;;;;;;21.78;46.47;100395.88;4910775;29;20040;-78
2023/06/19 00:19:30;;;;;;;4.70;3.58;;;;;;;21.74;46.94;100397.00;4950206;23;20112;-78
2023/06/19 00:21:57;;;;;;;4.43;4.10;;;;;;;21.75;47.12;100396.91;4895177;29;20122;-78
2023/06/19 00:24:24;;;;;;;4.35;3.95;;;;;;;21.76;47.08;100392.47;4897788;29;20036;-78
2023/06/19 00:26:50;;;;;;;4.55;3.60;;;;;;;21.77;46.90;100386.16;4900817;29;20136;-78
2023/06/19 00:29:17;;;;;;;4.40;3.85;;;;;;;21.75;47.13;100388.09;4918946;29;20099;-77
2023/06/19 00:31:43;;;;;;;4.00;3.70;;;;;;;21.75;47.14;100385.41;4899297;29;20041;-78
2023/06/19 00:34:10;;;;;;;3.97;3.65;;;;;;;21.73;47.51;100382.84;4899565;29;20048;-78
2023/06/19 00:36:40;;;;;;;4.45;4.05;;;;;;;21.74;47.06;100381.03;4898587;29;20053;-78
2023/06/19 00:39:08;;;;;;;4.43;3.85;;;;;;;21.74;47.12;100376.53;4917775;29;20048;-78
2023/06/19 00:41:36;;;;;;;5.05;4.22;;;;;;;21.72;47.23;100374.91;4923047;29;20059;-78
2023/06/19 00:44:02;;;;;;;4.35;4.05;;;;;;;21.72;47.64;100367.81;4906455;29;20060;-79
2023/06/19 00:46:29;;;;;;;4.22;3.92;;;;;;;21.73;47.11;100374.84;4892718;29;20044;-80
2023/06/19 00:48:56;;;;;;;4.25;3.85;;;;;;;21.74;47.19;100373.03;4926017;29;20044;-79
2023/06/19 00:51:22;;;;;;;4.35;3.95;;;;;;;21.74;47.29;100376.53;4904254;29;20455;-81
2023/06/19 00:53:49;;;;;;;4.18;3.88;;;;;;;21.74;47.27;100368.56;4913006;29;20371;-78
2023/06/19 00:56:18;;;;;;;4.35;3.95;;;;;;;21.71;47.12;100367.91;4912177;29;20139;-78
2023/06/19 00:58:45;;;;;;;3.20;3.00;;;;;;;21.71;47.45;100362.56;4908347;29;20048;-78
2023/06/19 01:01:11;;;;;;;4.28;3.97;;;;;;;21.65;47.48;100355.78;4914549;29;20048;-78
2023/06/19 01:03:38;;;;;;;5.60;3.70;;;;;;;21.65;47.59;100350.47;4902545;29;20448;-78
2023/06/19 01:06:13;;;;;;;4.80;4.40;;;;;;;21.61;47.68;100355.09;4914273;29;20119;-78
2023/06/19 01:09:02;;;;;;;4.22;3.83;;;;;;;21.57;47.93;100344.75;4892461;29;20036;-78
2023/06/19 01:11:48;;;;;;;5.18;4.78;;;;;;;21.51;48.17;100345.94;4917953;29;20048;-78
2023/06/19 01:14:34;;;;;;;5.22;4.78;;;;;;;21.49;48.40;100343.34;4898220;29;20064;-79
2023/06/19 01:17:01;;;;;;;4.00;3.70;;;;;;;21.48;48.05;100335.47;4898546;29;20036;-79
2023/06/19 01:19:28;;;;;;;4.07;3.78;;;;;;;21.48;48.24;100341.66;4911980;29;20056;-82
2023/06/19 01:21:54;;;;;;;4.28;3.88;;;;;;;21.47;48.23;100336.41;4882704;29;20116;-78
2023/06/19 01:24:21;;;;;;;4.30;3.40;;;;;;;21.43;48.49;100348.19;4881193;29;20499;-78
2023/06/19 01:26:48;;;;;;;4.60;4.20;;;;;;;21.42;48.42;100347.34;4921153;29;20037;-78
2023/06/19 01:29:17;;;;;;;3.83;3.53;;;;;;;21.42;48.55;100347.34;4911788;29;20044;-78
2023/06/19 01:32:14;;;;;;;4.25;3.85;;;;;;;21.41;48.71;100342.13;4919844;29;20088;-83
2023/06/19 01:34:41;;;;;;;5.00;4.10;;;;;;;21.40;48.68;100324.44;4879636;29;20476;-78
2023/06/19 01:37:08;;;;;;;3.85;3.55;;;;;;;21.38;49.00;100340.50;4898348;29;20460;-78
2023/06/19 01:39:36;;;;;;;4.63;4.22;;;;;;;21.32;48.93;100333.72;4898694;29;20068;-79
2023/06/19 01:42:05;;;;;;;3.92;3.63;;;;;;;21.29;49.13;100330.41;4914057;29;20048;-81
2023/06/19 01:44:31;;;;;;;3.92;3.55;;;;;;;21.25;49.24;100331.50;4897418;29;20043;-78
2023/06/19 01:46:58;;;;;;;4.28;3.95;;;;;;;21.19;49.45;100330.06;4911544;29;20067;-82
2023/06/19 01:49:26;;;;;;;3.90;3.60;;;;;;;21.14;49.65;100330.31;4897948;29;20491;-78
2023/06/19 01:51:52;;;;;;;3.58;3.28;;;;;;;21.09;49.81;100332.44;4920764;29;20556;-82
2023/06/19 01:54:19;;;;;;;4.38;4.00;;;;;;;21.04;50.07;100328.28;4893708;29;20056;-78
2023/06/19 01:56:45;;;;;;;8.68;4.38;;;;;;;20.98;50.08;100335.69;4898141;29;20459;-79
2023/06/19 01:59:12;;;;;;;4.20;3.90;;;;;;;20.93;50.27;100331.59;4884535;29;20045;-79
2023/06/19 02:01:39;;;;;;;4.28;3.88;;;;;;;20.90;50.38;100335.28;4897327;29;20158;-82
2023/06/19 02:04:05;;;;;;;4.20;3.80;;;;;;;20.87;50.33;100327.47;4901316;29;20036;-87
2023/06/19 02:06:32;;;;;;;3.92;3.63;;;;;;;20.86;50.44;100332.88;4909493;29;20040;-78
2023/06/19 02:08:58;;;;;;;4.07;3.78;;;;;;;20.83;50.45;100339.22;4897173;29;20078;-79
2023/06/19 02:11:25;;;;;;;4.78;4.10;;;;;;;20.86;50.40;100336.41;4897357;29;20060;-78
2023/06/19 02:13:51;;;;;;;4.28;3.97;;;;;;;20.90;50.30;100334.41;4907766;29;20044;-79
2023/06/19 02:16:18;;;;;;;6.43;4.20;;;;;;;20.93;50.15;100326.25;4897879;29;20448;-78
2023/06/19 02:18:44;;;;;;;4.82;4.38;;;;;;;20.97;50.08;100317.16;4897505;29;20044;-83
2023/06/19 02:21:10;;;;;;;4.35;3.95;;;;;;;20.99;50.06;100313.47;4887760;29;20068;-78
2023/06/19 02:23:37;;;;;;;5.57;4.68;;;;;;;20.99;50.16;100309.94;4884980;29;20052;-78
2023/06/19 02:26:03;;;;;;;5.07;4.20;;;;;;;21.01;50.28;100302.72;4902820;29;20045;-78
2023/06/19 02:28:30;;;;;;;4.30;4.00;;;;;;;20.98;50.64;100303.75;4904908;29;20056;-83
2023/06/19 02:30:56;;;;;;;3.55;3.30;;;;;;;20.97;50.63;100304.69;4896856;29;20198;-77
2023/06/19 02:33:23;;;;;;;3.75;3.45;;;;;;;20.95;50.54;100297.75;4895718;29;20052;-81
2023/06/19 02:35:49;;;;;;;4.30;3.97;;;;;;;20.95;50.77;100293.31;4896271;29;20040;-80
2023/06/19 02:38:18;;;;;;;4.80;4.03;;;;;;;20.94;51.33;100291.59;4865342;29;20049;-78
2023/06/19 02:40:45;;;;;;;4.20;3.90;;;;;;;20.97;50.68;100287.88;4897983;29;20041;-79
2023/06/19 02:43:11;;;;;;;3.85;3.58;;;;;;;20.99;50.80;100283.34;4897189;29;20096;-82
2023/06/19 02:45:37;;;;;;;5.07;4.43;;;;;;;20.99;50.90;100292.16;4897243;29;20047;-78
2023/06/19 02:48:05;;;;;;;4.22;3.90;;;;;;;21.00;50.84;100298.34;4896123;29;20476;-79
2023/06/19 02:50:31;;;;;;;4.20;3.80;;;;;;;21.02;50.78;100293.78;4897592;29;20052;-80
2023/06/19 02:52:58;;;;;;;4.88;4.47;;;;;;;21.03;50.38;100284.00;4882621;29;20047;-78
2023/06/19 02:55:24;;;;;;;4.25;3.95;;;;;;;21.04;50.25;100281.28;4896264;29;20045;-78
2023/06/19 02:57:51;;;;;;;6.32;3.78;;;;;;;21.05;50.32;100282.97;4896122;29;20472;-78
2023/06/19 03:00:17;;;;;;;4.65;4.35;;;;;;;21.06;50.31;100291.81;4897484;29;20069;-78
2023/06/19 03:02:44;;;;;;;4.88;4.47;;;;;;;21.06;50.17;100282.03;4896693;29;20421;-78
2023/06/19 03:05:14;;;;;;;5.15;4.65;;;;;;;21.06;50.00;100278.50;4891243;29;20083;-78
2023/06/19 03:07:41;;;;;;;5.90;4.50;;;;;;;21.07;50.01;100278.41;4898424;29;20044;-78
2023/06/19 03:10:08;;;;;;;7.97;4.13;;;;;;;21.08;50.03;100268.63;4896052;29;20049;-79
2023/06/19 03:12:36;;;;;;;4.80;4.40;;;;;;;21.08;49.62;100276.59;4911835;29;20080;-78
2023/06/19 03:15:02;;;;;;;4.18;3.80;;;;;;;21.08;49.78;100265.97;4912068;29;20041;-78
2023/06/19 03:17:28;;;;;;;7.57;4.20;;;;;;;21.06;50.09;100273.19;4896090;29;20040;-78
2023/06/19 03:19:55;;;;;;;4.03;3.70;;;;;;;21.06;49.92;100267.88;4891081;29;20049;-80
2023/06/19 03:22:21;;;;;;;7.70;3.75;;;;;;;21.06;49.81;100271.38;4875552;29;20045;-78
2023/06/19 03:24:48;;;;;;;4.50;3.72;;;;;;;21.05;49.78;100271.47;4873183;29;20124;-78
2023/06/19 03:27:16;;;;;;;4.28;3.95;;;;;;;21.04;49.89;100278.63;4869078;29;20081;-79
2023/06/19 03:29:42;;;;;;;4.28;3.53;;;;;;;21.03;49.86;100273.34;4877091;29;20044;-78
2023/06/19 03:32:09;;;;;;;4.07;3.53;;;;;;;21.03;50.05;100286.66;4859092;29;20535;-81
2023/06/19 03:34:35;;;;;;;4.07;3.78;;;;;;;21.02;49.95;100283.16;4860691;29;20111;-78
2023/06/19 03:37:02;;;;;;;5.07;4.00;;;;;;;21.03;49.96;100295.50;4867529;29;20040;-84
2023/06/19 03:39:28;;;;;;;4.18;3.83;;;;;;;21.05;50.35;100298.09;4886056;29;20036;-78
2023/06/19 03:41:55;;;;;;;4.28;3.88;;;;;;;21.04;49.95;100299.91;4851791;29;20072;-80
2023/06/19 03:44:21;;;;;;;4.30;4.00;;;;;;;21.03;49.99;100298.19;4830006;29;20139;-78
2023/06/19 03:46:48;;;;;;;4.45;4.05;;;;;;;21.03;50.13;100302.63;4875813;29;20124;-81
2023/06/19 03:49:14;;;;;;;4.20;3.90;;;;;;;21.02;49.95;100306.25;4876026;29;20495;-79
2023/06/19 03:51:41;;;;;;;5.93;3.90;;;;;;;21.02;50.05;100299.13;4866997;29;20150;-79
2023/06/19 03:54:07;;;;;;;4.63;4.05;;;;;;;21.03;50.08;100302.63;4871499;29;20045;-80
2023/06/19 03:56:33;;;;;;;4.25;3.95;;;;;;;21.03;49.95;100306.16;4865843;29;20498;-78
2023/06/19 03:59:00;;;;;;;4.53;3.58;;;;;;;21.05;50.07;100303.41;4867296;29;20143;-82
2023/06/19 04:01:26;;;;;;;3.75;3.45;;;;;;;21.04;50.12;100302.56;4857384;29;20048;-81
2023/06/19 04:03:53;;;;;;;4.93;4.53;;;;;;;21.03;50.16;100307.94;4862871;29;20144;-80
2023/06/19 04:06:19;;;;;;;5.88;5.10;;;;;;;21.02;50.50;100308.91;4861630;29;20484;-79
2023/06/19 04:08:46;;;;;;;4.20;3.67;;;;;;;21.03;50.53;100311.47;4863258;29;20040;-79
2023/06/19 04:11:12;;;;;;;3.80;3.47;;;;;;;21.01;50.47;100312.53;4875319;29;20048;-80
2023/06/19 04:13:39;;;;;;;4.72;4.32;;;;;;;20.99;50.76;100308.13;4857218;29;20037;-84
2023/06/19 04:16:05;;;;;;;4.75;3.70;;;;;;;21.00;50.84;100306.31;4859724;29;20043;-78
2023/06/19 04:18:32;;;;;;;5.45;4.07;;;;;;;20.99;51.00;100302.81;4855417;29;20041;-85
2023/06/19 04:20:59;;;;;;;4.38;3.97;;;;;;;20.95;51.25;100305.72;4886457;29;20194;-81
2023/06/19 04:23:25;;;;;;;5.32;4.30;;;;;;;20.92;51.44;100298.78;4889824;29;20054;-83
2023/06/19 04:25:52;;;;;;;4.70;4.30;;;;;;;20.88;51.64;100315.88;4892191;29;20048;-79
2023/06/19 04:28:18;;;;;;;4.32;3.92;;;;;;;20.87;51.98;100316.84;4892619;29;20120;-78
2023/06/19 04:30:45;;;;;;;4.57;4.28;;;;;;;20.82;52.25;100316.25;4885378;29;20036;-82
2023/06/19 04:33:11;;;;;;;4.43;4.03;;;;;;;20.80;52.32;100318.13;4889872;29;20540;-85
2023/06/19 04:35:39;;;;;;;4.60;4.20;;;;;;;20.80;52.38;100331.44;4893242;29;20498;-83
2023/06/19 04:38:07;;;;;;;4.25;3.95;;;;;;;20.79;52.64;100341.22;4880192;29;20570;-83
2023/06/19 04:40:34;;;;;;;4.57;4.18;;;;;;;20.78;52.75;100328.84;4896190;29;20036;-81
2023/06/19 04:43:05;;;;;;;5.32;4.82;;;;;;;20.78;52.83;100318.22;4892052;29;20088;-79
2023/06/19 04:45:32;;;;;;;4.90;4.28;;;;;;;20.78;53.19;100315.56;4893294;29;20040;-82
2023/06/19 04:48:02;;;;;;;4.47;4.07;;;;;;;20.77;53.39;100310.34;4894963;29;20051;-83
2023/06/19 04:50:29;;;;;;;4.82;4.40;;;;;;;20.74;53.67;100316.69;4895524;29;20113;-79
2023/06/19 04:52:55;;;;;;;4.90;4.50;;;;;;;20.67;54.07;100320.59;4887770;29;20472;-79
2023/06/19 04:55:24;;;;;;;6.55;4.25;;;;;;;20.61;54.75;100323.59;4909212;29;20045;-78
2023/06/19 04:57:50;;;;;;;6.40;4.38;;;;;;;20.62;54.40;100320.00;4892818;29;20037;-88
2023/06/19 05:00:19;;;;;;;5.18;4.30;;;;;;;20.61;54.74;100320.94;4888320;29;20051;-83
2023/06/19 05:02:47;;;;;;;4.25;3.85;;;;;;;20.63;54.75;100335.84;4890083;29;20063;-87
2023/06/19 05:05:14;;;;;;;6.45;4.95;;;;;;;20.66;54.41;100340.16;4889567;29;20044;-79
2023/06/19 05:07:42;;;;;;;4.78;4.40;;;;;;;20.72;54.27;100349.63;4892597;29;20037;-80
2023/06/19 05:10:10;;;;;;;6.05;4.28;;;;;;;20.79;54.06;100349.19;4893394;29;20132;-78
2023/06/19 05:12:36;;;;;;;4.38;4.00;;;;;;;20.86;54.35;100346.16;4878765;29;20116;-82
2023/06/19 05:15:03;;;;;;;4.85;4.45;;;;;;;20.87;54.49;100330.16;4905498;29;20044;-86
2023/06/19 05:17:30;;;;;;;5.40;4.30;;;;;;;20.86;54.86;100335.53;4895063;29;20041;-79
2023/06/19 05:19:56;;;;;;;6.03;5.22;;;;;;;20.85;55.43;100326.69;4910846;29;20134;-79
2023/06/19 05:22:26;;;;;;;5.68;5.05;;;;;;;20.90;55.55;100332.63;4896235;29;20045;-83
2023/06/19 05:24:53;;;;;;;5.43;4.93;;;;;;;20.96;54.87;100337.59;4910981;29;20132;-81
2023/06/19 05:27:19;;;;;;;5.10;4.43;;;;;;;20.98;54.74;100337.50;4894340;29;20043;-79
2023/06/19 05:29:46;;;;;;;6.65;5.97;;;;;;;20.97;54.57;100344.59;4877452;29;20032;-85
2023/06/19 05:32:12;;;;;;;4.57;4.18;;;;;;;21.01;54.60;100339.13;4890790;29;20036;-83
2023/06/19 05:34:38;;;;;;;6.03;5.50;;;;;;;21.03;54.45;100337.22;4893995;29;20047;-81
2023/06/19 05:37:05;;;;;;;6.93;4.90;;;;;;;21.06;54.58;100339.72;4892922;29;20043;-80
2023/06/19 05:39:32;;;;;;;5.57;4.85;;;;;;;21.08;55.03;100341.34;4886443;29;20115;-81
2023/06/19 05:41:58;;;;;;;7.20;5.68;;;;;;;21.14;54.62;100340.97;4886902;29;20048;-81
2023/06/19 05:44:25;;;;;;;7.50;5.60;;;;;;;21.26;54.17;100338.53;4893972;29;20048;-81
2023/06/19 05:46:52;;;;;;;6.15;5.55;;;;;;;21.37;53.84;100344.09;4892312;29;20067;-78
2023/06/19 05:49:18;;;;;;;5.00;4.60;;;;;;;21.47;53.65;100344.41;4890705;29;20071;-80
2023/06/19 05:51:45;;;;;;;6.18;5.60;;;;;;;21.49;53.42;100348.69;4912895;29;20139;-86
2023/06/19 05:54:11;;;;;;;6.32;5.13;;;;;;;21.54;53.62;100350.25;4892589;29;20048;-81
2023/06/19 05:56:38;;;;;;;7.22;5.53;;;;;;;21.42;54.44;100349.13;4870722;29;20132;-83
2023/06/19 05:59:04;;;;;;;6.40;5.25;;;;;;;21.38;54.81;100351.16;4904841;29;20076;-79
2023/06/19 06:01:31;;;;;;;5.40;4.80;;;;;;;21.37;55.28;100359.19;4887292;29;20084;-86
2023/06/19 06:03:58;;;;;;;5.28;4.80;;;;;;;21.27;56.08;100359.75;4901160;29;20047;-80
2023/06/19 06:06:25;;;;;;;5.45;4.70;;;;;;;21.30;56.03;100367.56;4898050;29;20048;-80
2023/06/19 06:08:52;;;;;;;7.05;5.38;;;;;;;21.42;55.58;100368.66;4888996;29;20049;-86
2023/06/19 06:11:19;;;;;;;6.80;4.93;;;;;;;21.45;55.41;100362.28;4874844;29;20095;-89
2023/06/19 06:13:45;;;;;;;5.97;5.38;;;;;;;21.48;55.10;100372.75;4911741;29;20044;-82
2023/06/19 06:16:12;;;;;;;7.53;5.35;;;;;;;21.48;55.20;100365.63;4885280;29;20361;-80
2023/06/19 06:18:38;;;;;;;5.35;4.85;;;;;;;21.46;55.35;100370.19;4892551;29;20044;-84
2023/06/19 06:21:05;;;;;;;6.53;5.15;;;;;;;21.42;55.51;100375.75;4889363;29;20048;-79
2023/06/19 06:23:31;;;;;;;5.95;5.32;;;;;;;21.42;55.52;100379.31;4876550;29;20045;-81
2023/06/19 06:26:02;;;;;;;6.40;5.38;;;;;;;21.48;56.34;100384.28;4901706;29;20044;-79
2023/06/19 06:28:28;;;;;;;5.63;5.13;;;;;;;21.52;56.88;100384.09;4895733;29;20055;-82
2023/06/19 06:30:56;;;;;;;6.22;5.70;;;;;;;21.55;57.82;100379.47;4898290;29;20119;-80
2023/06/19 06:33:22;;;;;;;4.68;4.38;;;;;;;21.52;57.37;100384.09;4898366;29;20052;-83
2023/06/19 06:35:49;;;;;;;5.97;5.03;;;;;;;21.56;57.68;100389.19;4890372;29;20049;-81
2023/06/19 06:38:15;;;;;;;6.80;4.95;;;;;;;21.64;58.01;100388.69;4887530;29;20507;-78
2023/06/19 06:40:43;;;;;;;5.30;4.53;;;;;;;21.79;57.17;100390.44;4895289;29;20039;-87
2023/06/19 06:43:09;;;;;;;6.05;5.40;;;;;;;21.94;56.75;100396.69;4894798;29;20040;-80
2023/06/19 06:45:37;;;;;;;5.25;4.55;;;;;;;22.05;56.58;100395.16;4898128;29;20041;-81
2023/06/19 06:48:05;;;;;;;6.18;5.53;;;;;;;22.14;56.00;100397.25;4895140;29;20112;-83
2023/06/19 06:50:32;;;;;;;7.18;5.20;;;;;;;22.23;55.68;100395.84;4893880;29;20746;-80
2023/06/19 06:52:58;;;;;;;6.10;5.50;;;;;;;22.34;55.24;100392.50;4869277;29;20047;-81
2023/06/19 06:55:25;;;;;;;6.03;5.28;;;;;;;22.35;54.91;100386.22;4892038;29;20040;-81
2023/06/19 06:57:52;;;;;;;7.47;5.72;;;;;;;22.32;55.09;100408.59;4895922;29;20041;-80
2023/06/19 07:00:19;;;;;;;5.95;4.70;;;;;;;22.51;54.91;100407.47;4896681;29;20059;-81
2023/06/19 07:02:47;;;;;;;6.45;5.53;;;;;;;22.70;54.12;100409.84;4877558;29;20652;-80
2023/06/19 07:05:14;;;;;;;13.85;5.20;;;;;;;22.94;53.04;100405.59;4893342;29;20045;-80
2023/06/19 07:07:40;;;;;;;6.43;5.82;;;;;;;23.17;51.89;100411.25;4886668;29;20036;-80
2023/06/19 07:10:08;;;;;;;5.20;4.70;;;;;;;23.33;51.49;100411.09;4893737;29;20048;-80
2023/06/19 07:12:36;;;;;;;5.35;4.90;;;;;;;23.42;51.27;100410.47;4896090;29;20044;-88
2023/06/19 07:15:02;;;;;;;5.68;5.10;;;;;;;23.63;50.55;100415.34;4893760;29;20134;-80
2023/06/19 07:17:28;;;;;;;5.57;5.07;;;;;;;23.81;49.85;100413.25;4909473;29;20051;-80
2023/06/19 07:19:55;;;;;;;5.95;5.35;;;;;;;24.09;49.13;100412.22;4908891;29;20060;-81
2023/06/19 07:22:21;;;;;;;6.40;5.75;;;;;;;24.37;47.66;100415.63;4891821;29;20045;-81
2023/06/19 07:24:48;;;;;;;8.63;5.68;;;;;;;24.63;46.73;100410.25;4894615;29;20036;-79
2023/06/19 07:27:14;;;;;;;6.05;5.32;;;;;;;24.92;45.91;100416.16;4886062;29;20057;-81
2023/06/19 07:29:41;;;;;;;6.07;5.47;;;;;;;25.12;44.95;100411.16;4909719;29;20111;-81
2023/06/19 07:32:08;;;;;;;6.82;5.68;;;;;;;25.20;44.69;100411.47;4892933;29;20407;-82
2023/06/19 07:34:34;;;;;;;7.40;6.32;;;;;;;25.46;44.25;100414.03;4889984;29;20052;-81
2023/06/19 07:37:01;;;;;;;6.47;5.88;;;;;;;25.55;44.39;100408.00;4878500;29;20359;-80
2023/06/19 07:39:27;;;;;;;6.25;5.68;;;;;;;25.91;43.94;100410.63;4893308;29;20116;-81
2023/06/19 07:41:54;;;;;;;8.18;6.00;;;;;;;26.41;43.08;100419.25;4908331;29;20040;-83
2023/06/19 07:44:20;;;;;;;10.48;7.47;;;;;;;26.99;42.29;100420.06;4878088;29;20049;-80
2023/06/19 07:46:47;;;;;;;7.32;5.07;;;;;;;27.39;42.00;100414.94;4889947;29;20416;-82
2023/06/19 07:49:14;;;;;;;6.97;5.55;;;;;;;27.83;41.45;100420.19;4890454;29;20040;-91
2023/06/19 07:51:40;;;;;;;6.55;5.10;;;;;;;28.41;40.55;100426.06;4875734;29;20395;-81
2023/06/19 07:54:06;;;;;;;6.65;5.75;;;;;;;28.55;39.91;100421.16;4891538;29;20040;-83
2023/06/19 07:56:33;;;;;;;6.55;5.45;;;;;;;28.41;40.94;100420.69;4907459;29;20096;-80
2023/06/19 07:58:59;;;;;;;7.05;5.57;;;;;;;28.87;40.17;100419.31;4909561;29;20048;-82
2023/06/19 08:01:26;;;;;;;6.32;5.63;;;;;;;29.27;39.42;100423.78;4874505;29;20115;-81
2023/06/19 08:03:52;;;;;;;8.55;5.95;;;;;;;29.85;38.58;100420.19;4891612;29;20433;-80
2023/06/19 08:06:19;;;;;;;6.35;5.90;;;;;;;29.84;38.24;100414.94;4906857;29;20084;-84
2023/06/19 08:08:46;;;;;;;6.53;5.90;;;;;;;29.44;38.75;100422.22;4909087;29;20080;-81
2023/06/19 08:11:12;;;;;;;6.50;5.88;;;;;;;29.03;38.60;100419.63;4893112;29;20044;-83
2023/06/19 08:13:39;;;;;;;7.20;5.70;;;;;;;28.99;38.90;100425.41;4891431;29;20053;-86
2023/06/19 08:16:05;;;;;;;7.25;6.00;;;;;;;29.13;38.62;100424.19;4890556;29;20061;-87
2023/06/19 08:18:32;;;;;;;8.85;5.93;;;;;;;29.82;37.67;100423.19;4906534;29;20123;-81
2023/06/19 08:21:00;;;;;;;5.63;5.22;;;;;;;30.22;37.01;100428.50;4891481;29;20053;-88
2023/06/19 08:23:27;;;;;;;7.63;4.95;;;;;;;30.13;37.13;100420.28;4890343;29;20054;-82
2023/06/19 08:25:53;;;;;;;5.32;4.80;;;;;;;30.44;37.14;100425.44;4908004;29;20033;-79
2023/06/19 08:28:21;;;;;;;5.22;4.85;;;;;;;30.70;36.41;100430.16;4887735;29;20108;-84
2023/06/19 08:30:47;;;;;;;6.25;5.68;;;;;;;30.83;36.33;100425.28;4886981;29;20040;-80
2023/06/19 08:33:14;;;;;;;5.05;4.57;;;;;;;31.08;36.28;100427.41;4906096;29;20067;-82
2023/06/19 08:35:41;;;;;;;5.97;4.05;;;;;;;31.33;35.97;100423.09;4906543;29;20060;-79
2023/06/19 08:38:07;;;;;;;5.05;4.40;;;;;;;31.39;36.37;100424.31;4887398;29;20037;-80
2023/06/19 08:40:34;;;;;;;4.60;4.20;;;;;;;31.36;36.05;100424.66;4907463;29;20040;-81
2023/06/19 08:43:01;;;;;;;6.90;4.90;;;;;;;31.46;36.13;100420.84;4889389;29;20033;-79
2023/06/19 08:45:28;;;;;;;9.80;5.22;;;;;;;30.82;36.99;100423.56;4908796;29;20515;-81
2023/06/19 08:48:03;;;;;;;9.23;4.78;;;;;;;30.33;37.65;100423.75;4890148;29;20449;-80
2023/06/19 08:50:33;;;;;;;4.75;4.45;;;;;;;30.40;38.07;100426.72;4896748;29;20555;-83
2023/06/19 08:53:00;;;;;;;4.50;4.20;;;;;;;30.99;37.09;100430.00;4879371;29;20044;-82
2023/06/19 08:55:26;;;;;;;4.63;4.32;;;;;;;31.92;35.24;100436.13;4892295;29;20033;-83
2023/06/19 08:57:53;;;;;;;4.80;4.47;;;;;;;32.13;35.01;100419.50;4895103;29;20052;-85
2023/06/19 09:00:28;;;;;;;5.05;4.55;;;;;;;31.22;36.10;100421.47;4894316;29;20052;-83
2023/06/19 09:03:02;;;;;;;6.72;5.10;;;;;;;31.04;36.64;100429.53;4897721;29;20044;-80
2023/06/19 09:05:29;;;;;;;4.68;4.28;;;;;;;31.44;36.10;100425.56;4896202;29;20041;-80
2023/06/19 09:08:01;;;;;;;4.88;4.25;;;;;;;32.21;35.21;100426.84;4897071;29;20072;-80
2023/06/19 09:10:28;;;;;;;4.47;4.18;;;;;;;32.97;34.05;100422.41;4895527;29;20088;-80
2023/06/19 09:13:04;;;;;;;5.30;4.80;;;;;;;34.06;32.80;100438.59;4895784;29;20044;-84
2023/06/19 09:15:39;;;;;;;5.15;4.65;;;;;;;34.22;32.29;100435.81;4869600;29;20071;-81
2023/06/19 09:18:08;;;;;;;7.15;4.65;;;;;;;34.70;31.81;100429.59;4887657;29;20043;-82
2023/06/19 09:20:41;;;;;;;4.82;4.25;;;;;;;34.78;31.48;100424.97;4893024;29;20053;-81
2023/06/19 09:23:08;;;;;;;5.82;4.90;;;;;;;34.48;31.52;100429.31;4895041;29;20037;-80
2023/06/19 09:26:04;;;;;;;8.32;4.72;;;;;;;34.83;31.41;100434.44;4892721;29;20501;-84
2023/06/19 09:28:32;;;;;;;5.28;4.25;;;;;;;34.80;31.06;100441.09;4894008;29;20044;-81
2023/06/19 09:31:04;;;;;;;5.43;4.97;;;;;;;34.93;31.17;100444.09;4905578;29;20250;-82
2023/06/19 09:33:34;;;;;;;4.93;4.53;;;;;;;35.49;30.11;100442.19;4894724;29;20055;-83
2023/06/19 09:36:04;;;;;;;4.80;4.50;;;;;;;35.70;29.70;100441.53;4895700;29;20029;-81
2023/06/19 09:38:34;;;;;;;6.88;4.05;;;;;;;35.21;30.24;100440.84;4911708;29;20052;-82
2023/06/19 09:41:04;;;;;;;5.55;5.03;;;;;;;33.65;32.40;100436.78;4896509;29;20040;-82
2023/06/19 09:43:40;;;;;;;4.57;4.20;;;;;;;33.05;33.51;100448.69;4868586;29;20480;-82
2023/06/19 09:46:08;;;;;;;4.55;4.15;;;;;;;32.59;34.30;100454.44;4906773;29;20045;-83
2023/06/19 09:48:35;;;;;;;5.15;4.65;;;;;;;31.76;35.85;100453.06;4893048;29;20048;-81
2023/06/19 09:51:14;;;;;;;4.82;4.43;;;;;;;30.60;36.97;100462.66;4894652;29;20055;-81
2023/06/19 09:53:41;;;;;;;4.88;4.30;;;;;;;30.09;38.31;100459.38;4903589;29;20072;-82
2023/06/19 09:56:08;;;;;;;7.25;4.75;;;;;;;29.70;39.58;100460.25;4894605;29;20036;-80
2023/06/19 09:58:35;;;;;;;4.35;4.00;;;;;;;29.45;40.72;100458.13;4895844;29;20068;-83
2023/06/19 10:01:06;;;;;;;5.13;4.20;;;;;;;29.33;40.71;100469.06;4895792;29;20041;-82
2023/06/19 10:03:34;;;;;;;7.55;3.95;;;;;;;29.37;40.91;100475.88;4915387;29;20040;-86
2023/06/19 10:06:03;;;;;;;5.28;4.55;;;;;;;28.71;42.42;100471.00;4895543;29;20028;-85
2023/06/19 10:08:41;;;;;;;7.72;4.88;;;;;;;28.59;42.50;100469.34;4893105;29;20032;-82
2023/06/19 10:11:08;;;;;;;4.28;3.92;;;;;;;30.17;39.89;100464.06;4898054;29;20057;-81
2023/06/19 10:13:39;;;;;;;4.28;3.97;;;;;;;31.57;37.43;100471.16;4875704;29;20485;-84
2023/06/19 10:16:06;;;;;;;6.15;4.00;;;;;;;32.13;36.63;100476.34;4899293;29;20037;-85
2023/06/19 10:18:34;;;;;;;4.18;3.72;;;;;;;31.96;36.59;100473.53;4887982;29;20124;-84
2023/06/19 10:21:01;;;;;;;5.03;3.50;;;;;;;31.57;37.34;100476.56;4908088;29;20348;-81
2023/06/19 10:23:28;;;;;;;6.13;3.47;;;;;;;30.65;38.97;100481.97;4896032;29;20048;-87
2023/06/19 10:25:55;;;;;;;6.43;3.55;;;;;;;30.97;38.88;100485.22;4907481;29;20115;-82
2023/06/19 10:28:24;;;;;;;5.15;2.63;;;;;;;30.78;39.21;100476.22;4896106;29;20530;-79
2023/06/19 10:31:01;;;;;;;5.30;2.97;;;;;;;30.08;40.52;100481.09;4896517;29;20056;-81
2023/06/19 10:33:33;;;;;;;4.38;2.95;;;;;;;30.89;38.85;100479.72;4913839;29;20451;-86
2023/06/19 10:36:21;;;;;;;6.22;3.72;;;;;;;32.10;36.99;100473.97;4901638;29;20120;-82
2023/06/19 10:38:49;;;;;;;6.22;3.40;;;;;;;32.76;35.81;100469.81;4898331;29;20046;-86
2023/06/19 10:41:24;;;;;;;3.78;3.40;;;;;;;33.35;34.64;100477.13;4899710;29;20045;-87
2023/06/19 10:44:12;;;;;;;2.88;2.67;;;;;;;33.26;34.62;100473.53;4904163;29;20044;-82
2023/06/19 10:46:40;;;;;;;7.38;3.30;;;;;;;32.73;35.20;100475.53;4895924;29;20045;-85
2023/06/19 10:49:10;;;;;;;4.35;2.95;;;;;;;34.03;33.61;100469.69;4880815;29;20113;-82
2023/06/19 10:51:43;;;;;;;3.50;3.20;;;;;;;34.25;33.44;100470.81;4899425;29;20040;-79
2023/06/19 10:54:10;;;;;;;4.57;3.25;;;;;;;33.86;33.62;100476.13;4880818;29;20051;-80
2023/06/19 10:56:36;;;;;;;3.20;2.90;;;;;;;33.49;33.40;100475.59;4894971;29;20045;-81
2023/06/19 10:59:13;;;;;;;7.50;2.88;;;;;;;33.71;33.08;100478.66;4900324;29;20072;-84
2023/06/19 11:01:47;;;;;;;2.67;2.47;;;;;;;33.15;33.59;100480.09;4890512;29;20053;-80
2023/06/19 11:04:16;;;;;;;3.05;2.20;;;;;;;33.59;33.13;100489.84;4901291;29;20056;-80
2023/06/19 11:06:45;;;;;;;6.65;2.63;;;;;;;34.75;31.65;100485.09;4897628;29;20044;-81
2023/06/19 11:09:13;;;;;;;1.98;1.88;;;;;;;35.81;30.17;100481.09;4874294;29;20449;-80
2023/06/19 11:11:44;;;;;;;2.53;2.33;;;;;;;35.16;31.22;100477.78;4887688;29;20708;-79
2023/06/19 11:14:13;;;;;;;2.47;2.13;;;;;;;35.49;30.68;100466.69;4908117;29;20083;-87
2023/06/19 11:16:42;;;;;;;2.30;1.95;;;;;;;35.33;30.72;100470.38;4894535;29;20048;-82
2023/06/19 11:19:21;;;;;;;1.98;1.90;;;;;;;34.09;32.68;100482.56;4885944;29;20059;-80
2023/06/19 11:21:50;;;;;;;2.35;2.25;;;;;;;33.01;33.63;100485.31;4859675;29;20036;-82
2023/06/19 11:24:17;;;;;;;2.00;1.88;;;;;;;33.01;33.66;100482.59;4855636;29;20395;-80
2023/06/19 11:26:50;;;;;;;7.53;2.58;;;;;;;33.01;33.49;100483.44;4863228;29;20036;-81
2023/06/19 11:29:20;;;;;;;;;;;;;;;32.56;34.09;100485.44;4860603;29;20120;-82